Portada
METAR-TAF:

METAR-TAF

Aeroports :

Kulu / Manali, Índia

latitud: 31-52-36N, longitud: 77-09-16E, altitud: 1089 m

Observació

L'informe es va fer fa 7 hores i 9 minuts, a les 06:00 UTC
Vent 2 kt del Sud/Sud-Est
Temperatura 26°C
Humitat 45%
Pressió 1013 hPa
Visibilitat: 6000 m
Escasses núvols a una alçada de 3000 ft

METAR: VIBR 020600Z 16002KT 6000 FEW030 26/13 Q1013

Hora: 18:39 (13:09 UTC)

Pronòstic

L'informe es va fer fa 8 hores i 9 minuts, a les 05:00 UTC
Pronòstic vàlid del 02 a les 06 UTC al 02 a les 15 UTC
Vent 4 kt del Sud/Sud-Est
Visibilitat: 6000 m
Escasses núvols a una alçada de 3500 ft

TAF: VIBR 020500Z 0206/0215 16004KT 6000 FEW035

Observacions i pronòstics meteorològics de més de 4000 aeroports (METAR i TAF).

Les estacions disponibles són els punts grocs i vermells al mapa.

Posi el ratolí al punt desitjat per veure el nom de l'estació.

Feu clic per veure les observacions i els pronòstics meteorològics.

Per canviar el mapa: feu clic els botons verds amb una creu de color negre per apropar; al botó verd amb un guió per allunyar la imatge; o en les fletxes verdes per a mapes adjacents.


METAR-TAF: